sensor_id;sensor_type;location;lat;lon;timestamp;P1;durP1;ratioP1;P2;durP2;ratioP2
79036;SDS011;68434;59.896;30.474;2023-09-08T00:00:42;10.57;;;3.40;;
79036;SDS011;68434;59.896;30.474;2023-09-08T00:03:09;7.72;;;4.00;;
79036;SDS011;68434;59.896;30.474;2023-09-08T00:05:37;8.77;;;3.42;;
79036;SDS011;68434;59.896;30.474;2023-09-08T00:08:08;10.52;;;4.55;;
79036;SDS011;68434;59.896;30.474;2023-09-08T00:10:36;10.68;;;4.50;;
79036;SDS011;68434;59.896;30.474;2023-09-08T00:13:03;7.85;;;3.53;;
79036;SDS011;68434;59.896;30.474;2023-09-08T00:15:33;10.82;;;4.43;;
79036;SDS011;68434;59.896;30.474;2023-09-08T00:18:00;10.13;;;4.50;;
79036;SDS011;68434;59.896;30.474;2023-09-08T00:20:28;11.13;;;3.97;;
79036;SDS011;68434;59.896;30.474;2023-09-08T00:22:55;8.70;;;3.35;;
79036;SDS011;68434;59.896;30.474;2023-09-08T00:25:24;8.23;;;3.85;;
79036;SDS011;68434;59.896;30.474;2023-09-08T00:27:51;8.13;;;3.50;;
79036;SDS011;68434;59.896;30.474;2023-09-08T00:30:19;7.30;;;3.60;;
79036;SDS011;68434;59.896;30.474;2023-09-08T00:32:46;9.32;;;4.07;;
79036;SDS011;68434;59.896;30.474;2023-09-08T00:35:13;6.75;;;3.53;;
79036;SDS011;68434;59.896;30.474;2023-09-08T00:37:44;7.90;;;3.55;;
79036;SDS011;68434;59.896;30.474;2023-09-08T00:40:11;9.30;;;4.07;;
79036;SDS011;68434;59.896;30.474;2023-09-08T00:42:40;7.00;;;3.35;;
79036;SDS011;68434;59.896;30.474;2023-09-08T00:45:08;5.70;;;3.42;;
79036;SDS011;68434;59.896;30.474;2023-09-08T00:47:35;8.85;;;3.25;;
79036;SDS011;68434;59.896;30.474;2023-09-08T00:50:03;7.93;;;3.40;;
79036;SDS011;68434;59.896;30.474;2023-09-08T00:52:32;7.45;;;3.35;;
79036;SDS011;68434;59.896;30.474;2023-09-08T00:54:59;6.45;;;2.90;;
79036;SDS011;68434;59.896;30.474;2023-09-08T00:57:31;7.97;;;3.00;;
79036;SDS011;68434;59.896;30.474;2023-09-08T01:00:00;7.00;;;3.13;;
79036;SDS011;68434;59.896;30.474;2023-09-08T01:02:31;5.70;;;2.47;;
79036;SDS011;68434;59.896;30.474;2023-09-08T01:04:59;7.43;;;3.20;;
79036;SDS011;68434;59.896;30.474;2023-09-08T01:07:30;9.38;;;3.10;;
79036;SDS011;68434;59.896;30.474;2023-09-08T01:09:58;6.88;;;3.13;;
79036;SDS011;68434;59.896;30.474;2023-09-08T01:12:30;6.15;;;2.70;;
79036;SDS011;68434;59.896;30.474;2023-09-08T01:14:58;9.13;;;3.35;;
79036;SDS011;68434;59.896;30.474;2023-09-08T01:17:27;10.88;;;3.80;;
79036;SDS011;68434;59.896;30.474;2023-09-08T01:19:55;9.38;;;3.50;;
79036;SDS011;68434;59.896;30.474;2023-09-08T01:22:27;7.80;;;3.58;;
79036;SDS011;68434;59.896;30.474;2023-09-08T01:25:12;7.40;;;2.80;;
79036;SDS011;68434;59.896;30.474;2023-09-08T01:27:43;5.82;;;3.20;;
79036;SDS011;68434;59.896;30.474;2023-09-08T01:30:14;5.10;;;2.85;;
79036;SDS011;68434;59.896;30.474;2023-09-08T01:32:42;9.25;;;2.85;;
79036;SDS011;68434;59.896;30.474;2023-09-08T01:35:11;7.80;;;3.22;;
79036;SDS011;68434;59.896;30.474;2023-09-08T01:37:41;6.03;;;3.17;;
79036;SDS011;68434;59.896;30.474;2023-09-08T01:40:12;7.85;;;2.60;;
79036;SDS011;68434;59.896;30.474;2023-09-08T01:42:41;5.65;;;2.80;;
79036;SDS011;68434;59.896;30.474;2023-09-08T01:45:09;7.40;;;2.85;;
79036;SDS011;68434;59.896;30.474;2023-09-08T01:47:36;6.40;;;2.90;;
79036;SDS011;68434;59.896;30.474;2023-09-08T01:50:05;7.03;;;2.80;;
79036;SDS011;68434;59.896;30.474;2023-09-08T01:52:32;8.45;;;3.00;;
79036;SDS011;68434;59.896;30.474;2023-09-08T01:57:29;5.30;;;2.67;;
79036;SDS011;68434;59.896;30.474;2023-09-08T01:59:57;6.90;;;2.80;;
79036;SDS011;68434;59.896;30.474;2023-09-08T02:02:24;6.28;;;3.00;;
79036;SDS011;68434;59.896;30.474;2023-09-08T02:04:52;7.03;;;2.90;;
79036;SDS011;68434;59.896;30.474;2023-09-08T02:07:20;9.88;;;3.03;;
79036;SDS011;68434;59.896;30.474;2023-09-08T02:09:50;10.23;;;3.22;;
79036;SDS011;68434;59.896;30.474;2023-09-08T02:12:19;9.07;;;2.53;;
79036;SDS011;68434;59.896;30.474;2023-09-08T02:14:49;7.82;;;3.00;;
79036;SDS011;68434;59.896;30.474;2023-09-08T02:17:18;7.28;;;2.80;;
79036;SDS011;68434;59.896;30.474;2023-09-08T02:19:46;6.55;;;2.83;;
79036;SDS011;68434;59.896;30.474;2023-09-08T02:22:13;8.45;;;2.92;;
79036;SDS011;68434;59.896;30.474;2023-09-08T02:24:40;5.72;;;2.95;;
79036;SDS011;68434;59.896;30.474;2023-09-08T02:27:08;8.35;;;3.03;;
79036;SDS011;68434;59.896;30.474;2023-09-08T02:29:36;5.00;;;3.00;;
79036;SDS011;68434;59.896;30.474;2023-09-08T02:32:05;6.15;;;2.72;;
79036;SDS011;68434;59.896;30.474;2023-09-08T02:34:33;5.70;;;2.83;;
79036;SDS011;68434;59.896;30.474;2023-09-08T02:37:04;4.88;;;2.60;;
79036;SDS011;68434;59.896;30.474;2023-09-08T02:39:32;6.43;;;3.15;;
79036;SDS011;68434;59.896;30.474;2023-09-08T02:42:00;6.38;;;2.92;;
79036;SDS011;68434;59.896;30.474;2023-09-08T02:44:27;10.45;;;3.30;;
79036;SDS011;68434;59.896;30.474;2023-09-08T02:46:56;6.50;;;2.90;;
79036;SDS011;68434;59.896;30.474;2023-09-08T02:49:25;8.90;;;2.60;;
79036;SDS011;68434;59.896;30.474;2023-09-08T02:51:53;5.60;;;2.88;;
79036;SDS011;68434;59.896;30.474;2023-09-08T02:54:20;5.25;;;3.30;;
79036;SDS011;68434;59.896;30.474;2023-09-08T02:56:48;6.90;;;2.78;;
79036;SDS011;68434;59.896;30.474;2023-09-08T02:59:18;8.48;;;3.88;;
79036;SDS011;68434;59.896;30.474;2023-09-08T03:01:45;7.20;;;3.72;;
79036;SDS011;68434;59.896;30.474;2023-09-08T03:04:12;8.68;;;3.58;;
79036;SDS011;68434;59.896;30.474;2023-09-08T03:06:42;9.35;;;4.03;;
79036;SDS011;68434;59.896;30.474;2023-09-08T03:09:09;9.18;;;3.85;;
79036;SDS011;68434;59.896;30.474;2023-09-08T03:11:37;7.72;;;4.22;;
79036;SDS011;68434;59.896;30.474;2023-09-08T03:14:06;11.00;;;4.60;;
79036;SDS011;68434;59.896;30.474;2023-09-08T03:16:33;9.57;;;4.95;;
79036;SDS011;68434;59.896;30.474;2023-09-08T03:19:01;8.25;;;4.65;;
79036;SDS011;68434;59.896;30.474;2023-09-08T03:21:28;11.52;;;5.40;;
79036;SDS011;68434;59.896;30.474;2023-09-08T03:23:57;10.88;;;5.40;;
79036;SDS011;68434;59.896;30.474;2023-09-08T03:26:24;8.77;;;4.75;;
79036;SDS011;68434;59.896;30.474;2023-09-08T03:28:52;10.45;;;5.38;;
79036;SDS011;68434;59.896;30.474;2023-09-08T03:31:19;11.40;;;5.45;;
79036;SDS011;68434;59.896;30.474;2023-09-08T03:33:47;9.70;;;5.22;;
79036;SDS011;68434;59.896;30.474;2023-09-08T03:36:14;11.10;;;6.10;;
79036;SDS011;68434;59.896;30.474;2023-09-08T03:38:42;12.68;;;5.97;;
79036;SDS011;68434;59.896;30.474;2023-09-08T03:41:11;12.57;;;6.25;;
79036;SDS011;68434;59.896;30.474;2023-09-08T03:43:39;10.90;;;5.40;;
79036;SDS011;68434;59.896;30.474;2023-09-08T03:46:06;13.25;;;5.82;;
79036;SDS011;68434;59.896;30.474;2023-09-08T03:48:34;16.08;;;5.93;;
79036;SDS011;68434;59.896;30.474;2023-09-08T03:51:01;10.18;;;5.28;;
79036;SDS011;68434;59.896;30.474;2023-09-08T03:53:28;10.95;;;4.90;;
79036;SDS011;68434;59.896;30.474;2023-09-08T03:55:56;9.88;;;4.57;;
79036;SDS011;68434;59.896;30.474;2023-09-08T03:58:25;10.38;;;4.47;;
79036;SDS011;68434;59.896;30.474;2023-09-08T04:00:53;9.25;;;4.68;;
79036;SDS011;68434;59.896;30.474;2023-09-08T04:03:21;8.98;;;5.05;;
79036;SDS011;68434;59.896;30.474;2023-09-08T04:05:48;7.53;;;4.20;;
79036;SDS011;68434;59.896;30.474;2023-09-08T04:08:16;9.20;;;3.88;;
79036;SDS011;68434;59.896;30.474;2023-09-08T04:10:43;10.90;;;4.38;;
79036;SDS011;68434;59.896;30.474;2023-09-08T04:13:10;8.30;;;4.72;;
79036;SDS011;68434;59.896;30.474;2023-09-08T04:15:40;7.72;;;4.10;;
79036;SDS011;68434;59.896;30.474;2023-09-08T04:18:07;9.35;;;4.40;;
79036;SDS011;68434;59.896;30.474;2023-09-08T04:20:34;8.32;;;4.20;;
79036;SDS011;68434;59.896;30.474;2023-09-08T04:23:02;10.02;;;3.80;;
79036;SDS011;68434;59.896;30.474;2023-09-08T04:25:29;11.60;;;3.80;;
79036;SDS011;68434;59.896;30.474;2023-09-08T04:27:57;6.43;;;3.63;;
79036;SDS011;68434;59.896;30.474;2023-09-08T04:30:24;11.82;;;4.00;;
79036;SDS011;68434;59.896;30.474;2023-09-08T04:32:53;6.60;;;3.58;;
79036;SDS011;68434;59.896;30.474;2023-09-08T04:35:21;8.02;;;4.13;;
79036;SDS011;68434;59.896;30.474;2023-09-08T04:37:48;11.45;;;3.65;;
79036;SDS011;68434;59.896;30.474;2023-09-08T04:40:16;7.10;;;4.35;;
79036;SDS011;68434;59.896;30.474;2023-09-08T04:42:45;9.07;;;4.05;;
79036;SDS011;68434;59.896;30.474;2023-09-08T04:45:12;10.13;;;4.25;;
79036;SDS011;68434;59.896;30.474;2023-09-08T04:47:40;7.07;;;3.95;;
79036;SDS011;68434;59.896;30.474;2023-09-08T04:50:09;8.73;;;3.88;;
79036;SDS011;68434;59.896;30.474;2023-09-08T04:52:37;8.00;;;4.47;;
79036;SDS011;68434;59.896;30.474;2023-09-08T04:55:05;7.80;;;3.97;;
79036;SDS011;68434;59.896;30.474;2023-09-08T04:57:34;8.57;;;5.35;;
79036;SDS011;68434;59.896;30.474;2023-09-08T05:00:02;9.20;;;4.30;;
79036;SDS011;68434;59.896;30.474;2023-09-08T05:02:33;7.18;;;3.50;;
79036;SDS011;68434;59.896;30.474;2023-09-08T05:05:02;9.57;;;4.72;;
79036;SDS011;68434;59.896;30.474;2023-09-08T05:07:32;9.82;;;4.22;;
79036;SDS011;68434;59.896;30.474;2023-09-08T05:10:00;9.85;;;4.28;;
79036;SDS011;68434;59.896;30.474;2023-09-08T05:12:30;7.60;;;3.65;;
79036;SDS011;68434;59.896;30.474;2023-09-08T05:14:59;7.70;;;4.32;;
79036;SDS011;68434;59.896;30.474;2023-09-08T05:17:34;6.68;;;3.90;;
79036;SDS011;68434;59.896;30.474;2023-09-08T05:20:01;7.93;;;4.00;;
79036;SDS011;68434;59.896;30.474;2023-09-08T05:22:32;10.25;;;4.00;;
79036;SDS011;68434;59.896;30.474;2023-09-08T05:24:59;8.07;;;4.80;;
79036;SDS011;68434;59.896;30.474;2023-09-08T05:27:29;7.40;;;4.18;;
79036;SDS011;68434;59.896;30.474;2023-09-08T05:32:24;15.15;;;4.95;;
79036;SDS011;68434;59.896;30.474;2023-09-08T05:34:53;4.93;;;3.53;;
79036;SDS011;68434;59.896;30.474;2023-09-08T05:37:21;8.10;;;3.65;;
79036;SDS011;68434;59.896;30.474;2023-09-08T05:39:50;8.10;;;4.03;;
79036;SDS011;68434;59.896;30.474;2023-09-08T05:42:17;8.00;;;3.33;;
79036;SDS011;68434;59.896;30.474;2023-09-08T05:44:44;6.88;;;3.72;;
79036;SDS011;68434;59.896;30.474;2023-09-08T05:47:14;9.07;;;4.38;;
79036;SDS011;68434;59.896;30.474;2023-09-08T05:49:41;8.32;;;4.32;;
79036;SDS011;68434;59.896;30.474;2023-09-08T05:52:09;7.13;;;4.13;;
79036;SDS011;68434;59.896;30.474;2023-09-08T05:54:38;8.50;;;4.05;;
79036;SDS011;68434;59.896;30.474;2023-09-08T05:57:07;7.47;;;3.88;;
79036;SDS011;68434;59.896;30.474;2023-09-08T05:59:34;12.60;;;4.05;;
79036;SDS011;68434;59.896;30.474;2023-09-08T06:02:02;9.07;;;3.80;;
79036;SDS011;68434;59.896;30.474;2023-09-08T06:04:30;7.63;;;4.00;;
79036;SDS011;68434;59.896;30.474;2023-09-08T06:07:00;8.27;;;4.47;;
79036;SDS011;68434;59.896;30.474;2023-09-08T06:09:27;8.60;;;4.65;;
79036;SDS011;68434;59.896;30.474;2023-09-08T06:11:54;8.68;;;4.90;;
79036;SDS011;68434;59.896;30.474;2023-09-08T06:14:24;10.00;;;3.75;;
79036;SDS011;68434;59.896;30.474;2023-09-08T06:16:51;8.18;;;3.95;;
79036;SDS011;68434;59.896;30.474;2023-09-08T06:19:19;7.97;;;4.03;;
79036;SDS011;68434;59.896;30.474;2023-09-08T06:21:46;7.45;;;4.05;;
79036;SDS011;68434;59.896;30.474;2023-09-08T06:24:14;8.75;;;3.75;;
79036;SDS011;68434;59.896;30.474;2023-09-08T06:26:41;5.78;;;3.33;;
79036;SDS011;68434;59.896;30.474;2023-09-08T06:29:08;7.18;;;4.10;;
79036;SDS011;68434;59.896;30.474;2023-09-08T06:31:37;6.45;;;3.95;;
79036;SDS011;68434;59.896;30.474;2023-09-08T06:34:05;8.02;;;4.28;;
79036;SDS011;68434;59.896;30.474;2023-09-08T06:36:32;8.43;;;4.72;;
79036;SDS011;68434;59.896;30.474;2023-09-08T06:39:00;12.90;;;7.10;;
79036;SDS011;68434;59.896;30.474;2023-09-08T06:41:28;6.53;;;4.05;;
79036;SDS011;68434;59.896;30.474;2023-09-08T06:43:58;6.65;;;3.60;;
79036;SDS011;68434;59.896;30.474;2023-09-08T06:46:27;6.45;;;4.10;;
79036;SDS011;68434;59.896;30.474;2023-09-08T06:48:56;8.43;;;4.07;;
79036;SDS011;68434;59.896;30.474;2023-09-08T06:51:23;10.23;;;4.43;;
79036;SDS011;68434;59.896;30.474;2023-09-08T06:53:54;6.82;;;3.65;;
79036;SDS011;68434;59.896;30.474;2023-09-08T06:56:26;6.95;;;3.75;;
79036;SDS011;68434;59.896;30.474;2023-09-08T06:58:53;6.65;;;3.50;;
79036;SDS011;68434;59.896;30.474;2023-09-08T07:01:23;9.25;;;3.05;;
79036;SDS011;68434;59.896;30.474;2023-09-08T07:03:51;6.20;;;3.03;;
79036;SDS011;68434;59.896;30.474;2023-09-08T07:06:20;8.80;;;3.00;;
79036;SDS011;68434;59.896;30.474;2023-09-08T07:08:50;8.25;;;2.85;;
79036;SDS011;68434;59.896;30.474;2023-09-08T07:11:19;5.95;;;3.65;;
79036;SDS011;68434;59.896;30.474;2023-09-08T07:13:47;5.25;;;2.88;;
79036;SDS011;68434;59.896;30.474;2023-09-08T07:16:15;22.08;;;13.27;;
79036;SDS011;68434;59.896;30.474;2023-09-08T07:18:43;18.55;;;13.00;;
79036;SDS011;68434;59.896;30.474;2023-09-08T07:21:10;7.15;;;5.00;;
79036;SDS011;68434;59.896;30.474;2023-09-08T07:23:40;7.47;;;3.60;;
79036;SDS011;68434;59.896;30.474;2023-09-08T07:26:09;8.10;;;5.15;;
79036;SDS011;68434;59.896;30.474;2023-09-08T07:28:38;6.20;;;3.83;;
79036;SDS011;68434;59.896;30.474;2023-09-08T07:31:10;8.93;;;4.10;;
79036;SDS011;68434;59.896;30.474;2023-09-08T07:33:40;7.55;;;4.25;;
79036;SDS011;68434;59.896;30.474;2023-09-08T07:36:07;5.43;;;3.75;;
79036;SDS011;68434;59.896;30.474;2023-09-08T07:38:37;6.65;;;3.17;;
79036;SDS011;68434;59.896;30.474;2023-09-08T07:43:34;9.52;;;3.30;;
79036;SDS011;68434;59.896;30.474;2023-09-08T07:46:07;8.43;;;3.20;;
79036;SDS011;68434;59.896;30.474;2023-09-08T07:48:34;11.23;;;4.25;;
79036;SDS011;68434;59.896;30.474;2023-09-08T07:51:02;6.30;;;3.28;;
79036;SDS011;68434;59.896;30.474;2023-09-08T07:53:29;8.05;;;3.42;;
79036;SDS011;68434;59.896;30.474;2023-09-08T07:55:57;6.75;;;3.67;;
79036;SDS011;68434;59.896;30.474;2023-09-08T07:58:26;6.25;;;3.33;;
79036;SDS011;68434;59.896;30.474;2023-09-08T08:00:53;8.35;;;2.75;;
79036;SDS011;68434;59.896;30.474;2023-09-08T08:03:21;5.80;;;2.85;;
79036;SDS011;68434;59.896;30.474;2023-09-08T08:05:49;7.90;;;3.47;;
79036;SDS011;68434;59.896;30.474;2023-09-08T08:08:16;8.80;;;3.55;;
79036;SDS011;68434;59.896;30.474;2023-09-08T08:10:44;6.20;;;3.63;;
79036;SDS011;68434;59.896;30.474;2023-09-08T08:13:11;7.55;;;3.50;;
79036;SDS011;68434;59.896;30.474;2023-09-08T08:15:40;7.50;;;3.30;;
79036;SDS011;68434;59.896;30.474;2023-09-08T08:18:08;5.40;;;3.40;;
79036;SDS011;68434;59.896;30.474;2023-09-08T08:20:36;5.72;;;3.28;;
79036;SDS011;68434;59.896;30.474;2023-09-08T08:25:33;6.20;;;3.05;;
79036;SDS011;68434;59.896;30.474;2023-09-08T08:28:01;7.50;;;2.80;;
79036;SDS011;68434;59.896;30.474;2023-09-08T08:30:28;8.43;;;2.90;;
79036;SDS011;68434;59.896;30.474;2023-09-08T08:32:57;7.35;;;3.00;;
79036;SDS011;68434;59.896;30.474;2023-09-08T08:35:25;7.85;;;3.05;;
79036;SDS011;68434;59.896;30.474;2023-09-08T08:37:53;7.00;;;2.88;;
79036;SDS011;68434;59.896;30.474;2023-09-08T08:40:21;6.68;;;3.20;;
79036;SDS011;68434;59.896;30.474;2023-09-08T08:42:54;6.53;;;3.15;;
79036;SDS011;68434;59.896;30.474;2023-09-08T08:45:22;5.55;;;3.05;;
79036;SDS011;68434;59.896;30.474;2023-09-08T08:47:51;4.03;;;2.90;;
79036;SDS011;68434;59.896;30.474;2023-09-08T08:50:20;7.95;;;2.88;;
79036;SDS011;68434;59.896;30.474;2023-09-08T08:52:48;5.57;;;2.83;;
79036;SDS011;68434;59.896;30.474;2023-09-08T08:55:16;8.88;;;3.50;;
79036;SDS011;68434;59.896;30.474;2023-09-08T08:57:44;5.80;;;3.05;;
79036;SDS011;68434;59.896;30.474;2023-09-08T09:00:12;7.15;;;2.92;;
79036;SDS011;68434;59.896;30.474;2023-09-08T09:02:42;5.20;;;2.90;;
79036;SDS011;68434;59.896;30.474;2023-09-08T09:05:10;6.57;;;3.05;;
79036;SDS011;68434;59.896;30.474;2023-09-08T09:07:41;5.20;;;2.97;;
79036;SDS011;68434;59.896;30.474;2023-09-08T09:10:09;6.80;;;3.05;;
79036;SDS011;68434;59.896;30.474;2023-09-08T09:12:39;6.30;;;3.00;;
79036;SDS011;68434;59.896;30.474;2023-09-08T09:15:07;7.53;;;3.17;;
79036;SDS011;68434;59.896;30.474;2023-09-08T09:17:35;5.97;;;2.65;;
79036;SDS011;68434;59.896;30.474;2023-09-08T09:20:13;7.32;;;2.80;;
79036;SDS011;68434;59.896;30.474;2023-09-08T09:22:46;6.38;;;2.70;;
79036;SDS011;68434;59.896;30.474;2023-09-08T09:25:24;4.68;;;2.50;;
79036;SDS011;68434;59.896;30.474;2023-09-08T09:27:53;5.95;;;2.63;;
79036;SDS011;68434;59.896;30.474;2023-09-08T09:30:22;6.40;;;2.72;;
79036;SDS011;68434;59.896;30.474;2023-09-08T09:32:58;5.05;;;2.65;;
79036;SDS011;68434;59.896;30.474;2023-09-08T09:35:42;6.00;;;2.38;;
79036;SDS011;68434;59.896;30.474;2023-09-08T09:38:12;5.82;;;2.80;;
79036;SDS011;68434;59.896;30.474;2023-09-08T09:40:40;4.90;;;2.63;;
79036;SDS011;68434;59.896;30.474;2023-09-08T09:43:08;5.40;;;2.83;;
79036;SDS011;68434;59.896;30.474;2023-09-08T09:45:37;7.18;;;2.85;;
79036;SDS011;68434;59.896;30.474;2023-09-08T09:48:06;8.65;;;2.70;;
79036;SDS011;68434;59.896;30.474;2023-09-08T09:50:37;6.78;;;2.75;;
79036;SDS011;68434;59.896;30.474;2023-09-08T09:53:08;7.22;;;2.13;;
79036;SDS011;68434;59.896;30.474;2023-09-08T09:55:39;5.72;;;2.20;;
79036;SDS011;68434;59.896;30.474;2023-09-08T09:58:08;7.65;;;3.10;;
79036;SDS011;68434;59.896;30.474;2023-09-08T10:00:37;4.78;;;2.30;;
79036;SDS011;68434;59.896;30.474;2023-09-08T10:03:06;4.97;;;2.13;;
79036;SDS011;68434;59.896;30.474;2023-09-08T10:05:34;8.35;;;2.38;;
79036;SDS011;68434;59.896;30.474;2023-09-08T10:08:04;7.47;;;2.47;;
79036;SDS011;68434;59.896;30.474;2023-09-08T10:10:32;5.32;;;2.70;;
79036;SDS011;68434;59.896;30.474;2023-09-08T10:13:02;4.68;;;2.55;;
79036;SDS011;68434;59.896;30.474;2023-09-08T10:15:33;4.93;;;2.50;;
79036;SDS011;68434;59.896;30.474;2023-09-08T10:18:03;6.38;;;2.20;;
79036;SDS011;68434;59.896;30.474;2023-09-08T10:20:32;4.32;;;2.17;;
79036;SDS011;68434;59.896;30.474;2023-09-08T10:23:03;6.22;;;3.22;;
79036;SDS011;68434;59.896;30.474;2023-09-08T10:25:35;3.75;;;2.05;;
79036;SDS011;68434;59.896;30.474;2023-09-08T10:28:12;5.28;;;2.10;;
79036;SDS011;68434;59.896;30.474;2023-09-08T10:30:40;5.43;;;2.40;;
79036;SDS011;68434;59.896;30.474;2023-09-08T10:33:08;4.10;;;2.20;;
79036;SDS011;68434;59.896;30.474;2023-09-08T10:35:37;3.13;;;2.22;;
79036;SDS011;68434;59.896;30.474;2023-09-08T10:40:48;6.25;;;2.20;;
79036;SDS011;68434;59.896;30.474;2023-09-08T10:43:20;3.88;;;2.00;;
79036;SDS011;68434;59.896;30.474;2023-09-08T10:45:47;5.38;;;2.10;;
79036;SDS011;68434;59.896;30.474;2023-09-08T10:48:15;4.07;;;2.20;;
79036;SDS011;68434;59.896;30.474;2023-09-08T10:50:42;5.18;;;2.42;;
79036;SDS011;68434;59.896;30.474;2023-09-08T10:53:12;6.30;;;2.25;;
79036;SDS011;68434;59.896;30.474;2023-09-08T10:55:42;5.45;;;2.40;;
79036;SDS011;68434;59.896;30.474;2023-09-08T10:58:28;4.20;;;2.28;;
79036;SDS011;68434;59.896;30.474;2023-09-08T11:00:58;4.10;;;2.20;;
79036;SDS011;68434;59.896;30.474;2023-09-08T11:03:28;4.20;;;2.22;;
79036;SDS011;68434;59.896;30.474;2023-09-08T11:06:11;3.80;;;2.13;;
79036;SDS011;68434;59.896;30.474;2023-09-08T11:08:40;3.50;;;2.22;;
79036;SDS011;68434;59.896;30.474;2023-09-08T11:11:10;2.92;;;1.98;;
79036;SDS011;68434;59.896;30.474;2023-09-08T11:13:40;4.47;;;2.10;;
79036;SDS011;68434;59.896;30.474;2023-09-08T11:16:11;3.97;;;2.15;;
79036;SDS011;68434;59.896;30.474;2023-09-08T11:18:40;3.33;;;1.85;;
79036;SDS011;68434;59.896;30.474;2023-09-08T11:21:08;2.92;;;1.90;;
79036;SDS011;68434;59.896;30.474;2023-09-08T11:23:37;6.88;;;2.35;;
79036;SDS011;68434;59.896;30.474;2023-09-08T11:26:05;6.25;;;2.80;;
79036;SDS011;68434;59.896;30.474;2023-09-08T11:28:34;3.80;;;2.13;;
79036;SDS011;68434;59.896;30.474;2023-09-08T11:31:04;5.05;;;2.38;;
79036;SDS011;68434;59.896;30.474;2023-09-08T11:33:33;3.33;;;2.30;;
79036;SDS011;68434;59.896;30.474;2023-09-08T11:36:10;7.03;;;2.33;;
79036;SDS011;68434;59.896;30.474;2023-09-08T11:38:41;5.43;;;2.40;;
79036;SDS011;68434;59.896;30.474;2023-09-08T11:41:11;4.32;;;2.80;;
79036;SDS011;68434;59.896;30.474;2023-09-08T11:43:38;5.85;;;2.72;;
79036;SDS011;68434;59.896;30.474;2023-09-08T11:46:08;5.38;;;2.70;;
79036;SDS011;68434;59.896;30.474;2023-09-08T11:48:37;5.80;;;2.72;;
79036;SDS011;68434;59.896;30.474;2023-09-08T11:51:06;5.20;;;2.92;;
79036;SDS011;68434;59.896;30.474;2023-09-08T11:53:34;6.30;;;3.30;;
79036;SDS011;68434;59.896;30.474;2023-09-08T11:56:06;63.03;;;19.23;;
79036;SDS011;68434;59.896;30.474;2023-09-08T11:58:34;120.68;;;31.27;;
79036;SDS011;68434;59.896;30.474;2023-09-08T12:01:02;448.80;;;114.82;;
79036;SDS011;68434;59.896;30.474;2023-09-08T12:03:33;417.23;;;105.53;;
79036;SDS011;68434;59.896;30.474;2023-09-08T12:06:01;225.10;;;66.95;;
79036;SDS011;68434;59.896;30.474;2023-09-08T12:10:57;222.40;;;65.72;;
79036;SDS011;68434;59.896;30.474;2023-09-08T12:13:24;203.00;;;59.20;;
79036;SDS011;68434;59.896;30.474;2023-09-08T12:15:52;160.88;;;51.45;;
79036;SDS011;68434;59.896;30.474;2023-09-08T12:18:19;199.32;;;59.25;;
79036;SDS011;68434;59.896;30.474;2023-09-08T12:21:06;146.25;;;46.08;;
79036;SDS011;68434;59.896;30.474;2023-09-08T12:23:35;117.90;;;41.42;;
79036;SDS011;68434;59.896;30.474;2023-09-08T12:26:15;128.40;;;42.58;;
79036;SDS011;68434;59.896;30.474;2023-09-08T12:28:43;100.75;;;39.33;;
79036;SDS011;68434;59.896;30.474;2023-09-08T12:31:11;121.68;;;43.40;;
79036;SDS011;68434;59.896;30.474;2023-09-08T12:33:43;115.00;;;38.70;;
79036;SDS011;68434;59.896;30.474;2023-09-08T12:36:12;102.15;;;38.80;;
79036;SDS011;68434;59.896;30.474;2023-09-08T12:38:40;89.03;;;32.08;;
79036;SDS011;68434;59.896;30.474;2023-09-08T12:41:08;82.70;;;30.98;;
79036;SDS011;68434;59.896;30.474;2023-09-08T12:43:35;77.70;;;24.75;;
79036;SDS011;68434;59.896;30.474;2023-09-08T12:46:04;86.13;;;30.30;;
79036;SDS011;68434;59.896;30.474;2023-09-08T12:48:34;84.50;;;29.50;;
79036;SDS011;68434;59.896;30.474;2023-09-08T12:51:02;73.60;;;27.80;;
79036;SDS011;68434;59.896;30.474;2023-09-08T12:53:32;54.28;;;17.83;;
79036;SDS011;68434;59.896;30.474;2023-09-08T12:56:01;57.65;;;24.13;;
79036;SDS011;68434;59.896;30.474;2023-09-08T12:58:29;57.90;;;22.83;;
79036;SDS011;68434;59.896;30.474;2023-09-08T13:00:56;52.88;;;20.98;;
79036;SDS011;68434;59.896;30.474;2023-09-08T13:03:24;55.53;;;22.05;;
79036;SDS011;68434;59.896;30.474;2023-09-08T13:05:51;30.10;;;12.43;;
79036;SDS011;68434;59.896;30.474;2023-09-08T13:08:20;38.60;;;15.20;;
79036;SDS011;68434;59.896;30.474;2023-09-08T13:10:48;34.33;;;14.45;;
79036;SDS011;68434;59.896;30.474;2023-09-08T13:13:16;31.98;;;14.85;;
79036;SDS011;68434;59.896;30.474;2023-09-08T13:15:44;26.00;;;11.05;;
79036;SDS011;68434;59.896;30.474;2023-09-08T13:18:11;34.00;;;13.73;;
79036;SDS011;68434;59.896;30.474;2023-09-08T13:20:39;30.60;;;11.98;;
79036;SDS011;68434;59.896;30.474;2023-09-08T13:23:07;29.73;;;11.68;;
79036;SDS011;68434;59.896;30.474;2023-09-08T13:25:36;30.67;;;12.52;;
79036;SDS011;68434;59.896;30.474;2023-09-08T13:28:03;27.60;;;11.63;;
79036;SDS011;68434;59.896;30.474;2023-09-08T13:30:31;21.25;;;9.80;;
79036;SDS011;68434;59.896;30.474;2023-09-08T13:33:02;22.55;;;8.68;;
79036;SDS011;68434;59.896;30.474;2023-09-08T13:35:30;20.70;;;7.65;;
79036;SDS011;68434;59.896;30.474;2023-09-08T13:37:57;16.95;;;8.55;;
79036;SDS011;68434;59.896;30.474;2023-09-08T13:40:25;14.50;;;6.47;;
79036;SDS011;68434;59.896;30.474;2023-09-08T13:42:56;16.83;;;6.90;;
79036;SDS011;68434;59.896;30.474;2023-09-08T13:45:24;16.00;;;6.72;;
79036;SDS011;68434;59.896;30.474;2023-09-08T13:47:51;14.35;;;6.88;;
79036;SDS011;68434;59.896;30.474;2023-09-08T13:50:19;11.75;;;6.32;;
79036;SDS011;68434;59.896;30.474;2023-09-08T13:52:49;12.88;;;6.13;;
79036;SDS011;68434;59.896;30.474;2023-09-08T13:55:16;13.85;;;6.13;;
79036;SDS011;68434;59.896;30.474;2023-09-08T13:57:49;11.07;;;6.00;;
79036;SDS011;68434;59.896;30.474;2023-09-08T14:00:18;12.13;;;5.18;;
79036;SDS011;68434;59.896;30.474;2023-09-08T14:02:46;10.50;;;5.18;;
79036;SDS011;68434;59.896;30.474;2023-09-08T14:05:14;10.43;;;4.90;;
79036;SDS011;68434;59.896;30.474;2023-09-08T14:10:09;11.50;;;5.15;;
79036;SDS011;68434;59.896;30.474;2023-09-08T14:12:40;11.38;;;4.88;;
79036;SDS011;68434;59.896;30.474;2023-09-08T14:15:08;8.10;;;4.93;;
79036;SDS011;68434;59.896;30.474;2023-09-08T14:17:42;9.02;;;4.40;;
79036;SDS011;68434;59.896;30.474;2023-09-08T14:20:10;10.35;;;4.57;;
79036;SDS011;68434;59.896;30.474;2023-09-08T14:22:40;8.55;;;4.38;;
79036;SDS011;68434;59.896;30.474;2023-09-08T14:25:11;8.95;;;4.45;;
79036;SDS011;68434;59.896;30.474;2023-09-08T14:27:39;7.47;;;4.22;;
79036;SDS011;68434;59.896;30.474;2023-09-08T14:30:07;8.30;;;4.53;;
79036;SDS011;68434;59.896;30.474;2023-09-08T14:32:35;9.10;;;4.88;;
79036;SDS011;68434;59.896;30.474;2023-09-08T14:35:04;9.25;;;4.50;;
79036;SDS011;68434;59.896;30.474;2023-09-08T14:37:33;8.68;;;4.07;;
79036;SDS011;68434;59.896;30.474;2023-09-08T14:40:00;7.63;;;3.80;;
79036;SDS011;68434;59.896;30.474;2023-09-08T14:42:29;8.55;;;4.50;;
79036;SDS011;68434;59.896;30.474;2023-09-08T14:44:57;9.05;;;4.20;;
79036;SDS011;68434;59.896;30.474;2023-09-08T14:47:25;6.82;;;4.18;;
79036;SDS011;68434;59.896;30.474;2023-09-08T14:49:52;7.45;;;4.70;;
79036;SDS011;68434;59.896;30.474;2023-09-08T14:52:21;7.65;;;3.92;;
79036;SDS011;68434;59.896;30.474;2023-09-08T14:54:49;6.97;;;4.20;;